createdAt,value
2023-05-20T07:35:50.685Z,6.07
2023-05-20T07:38:20.772Z,7.63
2023-05-20T07:40:55.869Z,6.35
2023-05-20T07:43:25.073Z,6.25
2023-05-20T07:45:54.272Z,8.98
2023-05-20T07:48:23.440Z,8.77
2023-05-20T07:50:54.098Z,6.75
2023-05-20T07:53:23.409Z,7.20
2023-05-20T07:55:52.621Z,6.78
2023-05-20T07:58:22.171Z,6.95
2023-05-20T08:00:52.661Z,6.50
2023-05-20T08:03:22.550Z,7.80
2023-05-20T08:06:05.641Z,7.20
2023-05-20T08:08:34.783Z,6.53
2023-05-20T08:11:10.094Z,6.53
2023-05-20T08:13:40.937Z,7.07
2023-05-20T08:16:13.340Z,8.30
2023-05-20T08:18:42.573Z,7.10
2023-05-20T08:21:16.101Z,7.03
2023-05-20T08:23:45.591Z,6.20
2023-05-20T08:26:14.742Z,6.63
2023-05-20T08:28:45.418Z,5.22
2023-05-20T08:31:15.445Z,5.95
2023-05-20T08:33:44.584Z,6.10
2023-05-20T08:36:19.579Z,9.48
2023-05-20T08:38:49.267Z,6.43
2023-05-20T08:41:19.188Z,5.75
2023-05-20T08:43:54.875Z,7.65
2023-05-20T08:46:32.865Z,5.57
2023-05-20T08:49:02.420Z,6.43
2023-05-20T08:51:37.576Z,8.23
2023-05-20T08:54:08.217Z,7.30
2023-05-20T08:56:39.377Z,5.88
2023-05-20T08:59:10.120Z,6.07
2023-05-20T09:01:44.397Z,6.20
2023-05-20T09:04:13.764Z,7.03
2023-05-20T09:06:48.607Z,5.63
2023-05-20T09:09:21.590Z,6.25
2023-05-20T09:11:50.781Z,6.07
2023-05-20T09:14:20.123Z,6.15
2023-05-20T09:16:52.675Z,6.90
2023-05-20T09:19:24.552Z,7.40
2023-05-20T09:21:58.766Z,10.35
2023-05-20T09:24:28.246Z,10.70
2023-05-20T09:26:57.747Z,6.72
2023-05-20T09:29:27.975Z,6.68
2023-05-20T09:31:57.840Z,7.32
2023-05-20T09:34:27.156Z,7.40
2023-05-20T09:37:00.657Z,6.55
2023-05-20T12:22:41.762Z,6.43
2023-05-20T12:25:14.940Z,6.28
2023-05-20T12:27:48.376Z,7.70
2023-05-20T12:30:19.110Z,7.43
2023-05-20T12:32:51.207Z,6.50
2023-05-20T12:35:27.078Z,6.78
2023-05-20T12:37:57.877Z,5.30
2023-05-20T12:40:27.116Z,7.32
2023-05-20T12:42:56.427Z,7.38
2023-05-20T12:45:25.649Z,5.97
2023-05-20T12:47:56.002Z,5.65
2023-05-20T12:50:26.613Z,7.63
2023-05-20T12:52:57.349Z,6.45
2023-05-20T12:55:26.666Z,6.35
2023-05-20T13:02:03.192Z,5.35
2023-05-20T13:04:32.490Z,5.85
2023-05-20T13:07:01.532Z,5.75
2023-05-20T13:09:32.774Z,5.57
2023-05-20T13:12:01.869Z,7.20
2023-05-20T13:14:32.068Z,6.05
2023-05-20T13:17:01.900Z,6.97
2023-05-20T13:19:32.058Z,7.63
2023-05-20T13:22:01.310Z,5.97
2023-05-20T13:24:31.775Z,5.60
2023-05-20T13:27:01.442Z,8.63
2023-05-20T13:29:30.660Z,6.68
2023-05-20T13:32:01.757Z,5.88
2023-05-20T13:34:31.708Z,5.82
2023-05-20T13:37:00.806Z,9.65
2023-05-20T13:39:31.236Z,6.72
2023-05-20T13:42:00.439Z,5.88
2023-05-20T13:44:30.679Z,7.85
2023-05-20T13:47:01.010Z,6.45
2023-05-20T13:49:30.047Z,6.03
2023-05-20T13:51:59.106Z,7.05
2023-05-20T13:54:28.213Z,5.78
2023-05-20T13:56:58.620Z,5.85
2023-05-20T13:59:27.656Z,6.45
2023-05-20T14:01:56.677Z,7.75
2023-05-20T14:04:27.085Z,6.00
2023-05-20T14:06:56.345Z,6.32
2023-05-20T14:09:25.332Z,6.57
2023-05-20T14:11:54.375Z,8.50
2023-05-20T14:14:24.836Z,7.43
2023-05-20T14:16:53.848Z,6.80
2023-05-20T14:19:22.830Z,6.95
2023-05-20T14:21:51.856Z,7.43
2023-05-20T14:24:23.447Z,5.85
2023-05-20T14:26:52.970Z,5.88
2023-05-20T14:29:22.174Z,6.65
2023-05-20T14:31:52.650Z,8.13
2023-05-20T14:34:22.613Z,5.63
2023-05-20T14:36:51.690Z,5.35
2023-05-20T14:39:20.997Z,5.35
2023-05-20T14:41:50.040Z,6.43
2023-05-20T14:44:19.016Z,6.25
2023-05-20T14:46:48.470Z,7.03
2023-05-20T14:49:18.827Z,5.90
2023-05-20T14:51:47.870Z,6.53
2023-05-20T14:54:19.033Z,6.63
2023-05-20T14:56:49.836Z,5.68
2023-05-20T14:59:19.134Z,7.05
2023-05-20T15:01:48.283Z,8.60
2023-05-20T15:04:18.837Z,6.47
2023-05-20T15:06:48.061Z,9.65
2023-05-20T15:09:17.180Z,7.18
2023-05-20T15:11:46.412Z,6.38
2023-05-20T15:14:15.590Z,7.40
2023-05-20T15:16:45.792Z,10.40
2023-05-20T15:19:15.325Z,7.10
2023-05-20T15:21:46.017Z,7.32
2023-05-20T15:24:15.244Z,6.10
2023-05-20T15:26:44.339Z,6.53
2023-05-20T15:29:14.012Z,6.93
2023-05-20T15:31:43.139Z,6.93
2023-05-20T15:34:12.317Z,5.07
2023-05-20T15:36:41.506Z,6.88
2023-05-20T15:39:12.037Z,5.30
2023-05-20T15:41:42.460Z,6.68
2023-05-20T15:44:12.079Z,6.55
2023-05-20T15:46:41.479Z,6.45
2023-05-20T15:49:11.631Z,6.65
2023-05-20T15:51:42.647Z,6.40
2023-05-20T15:54:19.962Z,7.78
2023-05-20T15:56:49.098Z,5.72
2023-05-20T15:59:18.184Z,6.03
2023-05-20T16:01:48.275Z,5.75
2023-05-20T16:04:17.652Z,6.50
2023-05-20T16:06:46.938Z,6.43
2023-05-20T16:09:17.408Z,7.00
2023-05-20T16:11:47.688Z,6.95
2023-05-20T16:14:16.931Z,5.40
2023-05-20T16:16:46.193Z,7.63
2023-05-20T16:19:15.331Z,7.60
2023-05-20T16:21:44.500Z,6.00
2023-05-20T16:24:13.699Z,7.60
2023-05-20T16:26:44.246Z,7.70
2023-05-20T16:29:15.681Z,5.70
2023-05-20T16:31:46.992Z,8.30
2023-05-20T16:34:17.654Z,7.05
2023-05-20T16:36:46.849Z,7.53
2023-05-20T16:39:16.597Z,10.55
2023-05-20T16:41:47.135Z,6.95
2023-05-20T16:44:16.654Z,6.25
2023-05-20T16:46:46.086Z,6.80
2023-05-20T16:49:15.272Z,7.07
2023-05-20T16:51:44.417Z,8.70
2023-05-20T16:54:13.664Z,7.10
2023-05-20T16:56:42.760Z,7.20
2023-05-20T16:59:14.676Z,7.82
2023-05-20T17:01:43.893Z,10.75
2023-05-20T17:04:13.187Z,8.85
2023-05-20T17:06:42.410Z,6.53
2023-05-20T17:09:11.781Z,9.07
2023-05-20T17:11:41.296Z,7.95
2023-05-20T17:14:10.597Z,7.93
2023-05-20T17:16:41.272Z,9.13
2023-05-20T17:19:11.106Z,7.65
2023-05-20T17:21:40.904Z,9.00
2023-05-20T17:24:10.078Z,7.20
2023-05-20T17:26:39.238Z,8.50
2023-05-20T17:29:08.740Z,7.28
2023-05-20T17:31:37.964Z,10.10
2023-05-20T17:34:08.535Z,6.65
2023-05-20T17:36:37.762Z,12.77
2023-05-20T17:39:06.868Z,15.45
2023-05-20T17:41:35.970Z,15.82
2023-05-20T17:44:05.737Z,19.38
2023-05-20T17:46:35.228Z,14.57
2023-05-20T17:49:04.331Z,13.77
2023-05-20T17:51:34.857Z,11.63
2023-05-20T17:54:03.998Z,13.32
2023-05-20T17:56:33.285Z,13.52
2023-05-20T17:59:02.369Z,10.63
2023-05-20T18:01:31.637Z,13.98
2023-05-20T18:04:04.488Z,11.43
2023-05-20T18:06:35.431Z,9.63
2023-05-20T18:09:06.146Z,10.23
2023-05-20T18:11:35.732Z,9.73
2023-05-20T18:14:04.912Z,9.65
2023-05-20T18:16:34.156Z,8.50
2023-05-20T18:19:03.677Z,9.02
2023-05-20T18:21:34.197Z,10.90
2023-05-20T18:24:03.354Z,10.13
2023-05-20T18:26:32.579Z,10.02
2023-05-20T18:29:01.686Z,12.30
2023-05-20T18:31:30.964Z,11.45
2023-05-20T18:34:00.131Z,12.93
2023-05-20T18:36:30.406Z,10.73
2023-05-20T18:39:01.133Z,14.48
2023-05-20T18:41:43.206Z,10.02
2023-05-20T18:44:16.057Z,9.73
2023-05-20T18:46:45.580Z,13.40
2023-05-20T18:49:14.868Z,11.38
2023-05-20T18:51:44.006Z,13.57
2023-05-20T18:54:14.475Z,14.05
2023-05-20T18:56:43.623Z,15.95
2023-05-20T18:59:12.664Z,13.30
2023-05-20T19:01:41.866Z,14.32
2023-05-20T19:04:11.523Z,13.50
2023-05-20T19:06:40.708Z,12.70
2023-05-20T19:09:09.762Z,11.77
2023-05-20T19:11:40.280Z,17.98
2023-05-20T19:14:09.408Z,15.07
2023-05-20T19:16:39.102Z,16.98
2023-05-20T19:19:08.316Z,15.98
2023-05-20T19:21:41.496Z,14.70
2023-05-20T19:24:10.582Z,14.63
2023-05-20T19:26:41.173Z,14.43
2023-05-20T19:29:10.474Z,13.20
2023-05-20T19:31:43.038Z,12.98
2023-05-20T19:34:12.177Z,12.45
2023-05-20T19:36:42.988Z,15.20
2023-05-20T19:39:12.146Z,14.48
2023-05-20T19:41:43.037Z,14.98
2023-05-20T19:44:12.468Z,18.75
2023-05-20T19:46:42.597Z,14.50
2023-05-20T19:49:11.773Z,16.30
2023-05-20T19:51:41.080Z,15.73
2023-05-20T19:54:10.269Z,14.70
2023-05-20T19:56:39.602Z,16.80
2023-05-20T19:59:10.223Z,15.48
2023-05-20T20:01:39.446Z,15.60
2023-05-20T20:04:08.622Z,17.13
2023-05-20T20:06:37.675Z,16.38
2023-05-20T20:09:06.782Z,17.45
2023-05-20T20:11:36.080Z,16.05
2023-05-20T20:14:05.233Z,18.75
2023-05-20T20:16:36.007Z,14.60
2023-05-20T20:19:05.885Z,16.65
2023-05-20T20:21:36.279Z,16.08
2023-05-20T20:24:06.032Z,16.02
2023-05-20T20:26:36.098Z,14.93
2023-05-20T20:29:05.273Z,17.40
2023-05-20T20:31:35.924Z,15.52
2023-05-20T20:34:05.131Z,15.98
2023-05-20T20:36:34.967Z,16.63
2023-05-20T20:39:05.405Z,16.70
2023-05-20T20:41:34.892Z,19.65
2023-05-20T20:44:04.117Z,16.00
2023-05-20T20:46:33.211Z,16.25
2023-05-20T20:49:03.695Z,15.35
2023-05-20T20:51:33.728Z,16.77
2023-05-20T20:54:02.894Z,16.30
2023-05-20T20:56:36.688Z,16.02
2023-05-20T20:59:05.932Z,17.63
2023-05-20T21:01:36.258Z,17.67
2023-05-20T21:04:07.074Z,16.58
2023-05-20T21:06:37.889Z,15.40
2023-05-20T21:09:07.551Z,14.68
2023-05-20T21:11:38.563Z,17.63
2023-05-20T21:14:07.681Z,17.85
2023-05-20T21:16:36.844Z,17.05
2023-05-20T21:19:07.484Z,19.75
2023-05-20T21:21:36.698Z,18.58
2023-05-20T21:24:06.018Z,17.80
2023-05-20T21:26:35.146Z,17.77
2023-05-20T21:29:04.783Z,21.73
2023-05-20T21:31:33.976Z,18.58
2023-05-20T21:34:03.151Z,20.25
2023-05-20T21:36:33.666Z,17.38
2023-05-20T21:39:02.795Z,18.60
2023-05-20T21:41:32.023Z,19.85
2023-05-20T21:44:01.125Z,19.17
2023-05-20T21:46:30.250Z,16.80
2023-05-20T21:48:59.651Z,17.77
2023-05-20T21:51:28.727Z,18.15
2023-05-20T21:53:59.544Z,21.00
2023-05-20T21:56:28.711Z,20.55
2023-05-20T21:58:57.772Z,16.45
2023-05-20T22:01:26.885Z,15.10
2023-05-20T22:03:56.622Z,16.98
2023-05-20T22:06:25.913Z,16.05
2023-05-20T22:08:55.164Z,16.23
2023-05-20T22:11:26.364Z,16.92
2023-05-20T22:13:55.609Z,18.73
2023-05-20T22:16:24.858Z,15.88
2023-05-20T22:18:54.301Z,19.02
2023-05-20T22:21:24.576Z,17.20
2023-05-20T22:23:53.659Z,17.73
2023-05-20T22:26:22.801Z,19.08
2023-05-20T22:28:53.306Z,18.45
2023-05-20T22:31:22.879Z,16.55
2023-05-20T22:33:52.160Z,18.48
2023-05-20T22:36:22.017Z,19.67
2023-05-20T22:38:51.336Z,16.17
2023-05-20T22:41:21.099Z,17.40
2023-05-20T22:43:50.215Z,18.58
2023-05-20T22:46:20.839Z,16.92
2023-05-20T22:48:52.913Z,17.13
2023-05-20T22:51:24.677Z,17.48
2023-05-20T22:53:54.197Z,17.00
2023-05-20T22:56:23.746Z,16.20
2023-05-20T22:58:52.928Z,21.60
2023-05-20T23:01:24.172Z,15.40
2023-05-20T23:03:53.766Z,16.30
2023-05-20T23:06:23.317Z,16.10
2023-05-20T23:08:52.581Z,16.35
2023-05-20T23:11:21.665Z,17.73
2023-05-20T23:13:50.836Z,17.23
2023-05-20T23:16:20.018Z,18.88
2023-05-20T23:18:50.645Z,17.77
2023-05-20T23:21:20.176Z,17.73
2023-05-20T23:23:49.306Z,18.63
2023-05-20T23:26:18.600Z,18.48
2023-05-20T23:28:47.899Z,17.98
2023-05-20T23:31:18.753Z,15.63
2023-05-20T23:33:48.037Z,17.90
2023-05-20T23:36:20.136Z,15.30
2023-05-20T23:38:49.275Z,14.80
2023-05-20T23:41:18.617Z,17.98
2023-05-20T23:43:47.716Z,17.75
2023-05-20T23:46:18.485Z,19.80
2023-05-20T23:48:48.440Z,18.42
2023-05-20T23:51:19.098Z,18.88
2023-05-20T23:53:48.442Z,16.70
2023-05-20T23:56:17.596Z,16.80
2023-05-20T23:58:47.338Z,19.23
